sensor_id;sensor_type;location;lat;lon;timestamp;P1;durP1;ratioP1;P2;durP2;ratioP2
58015;SDS011;43809;52.110;20.964;2023-04-15T00:00:33;10.05;;;7.13;;
58015;SDS011;43809;52.110;20.964;2023-04-15T00:02:34;9.90;;;7.07;;
58015;SDS011;43809;52.110;20.964;2023-04-15T00:04:37;10.93;;;7.43;;
58015;SDS011;43809;52.110;20.964;2023-04-15T00:06:37;9.98;;;7.03;;
58015;SDS011;43809;52.110;20.964;2023-04-15T00:08:38;9.65;;;7.03;;
58015;SDS011;43809;52.110;20.964;2023-04-15T00:10:38;11.45;;;7.45;;
58015;SDS011;43809;52.110;20.964;2023-04-15T00:12:39;10.47;;;7.07;;
58015;SDS011;43809;52.110;20.964;2023-04-15T00:14:40;11.23;;;7.88;;
58015;SDS011;43809;52.110;20.964;2023-04-15T00:16:40;10.55;;;7.28;;
58015;SDS011;43809;52.110;20.964;2023-04-15T00:18:40;10.20;;;7.20;;
58015;SDS011;43809;52.110;20.964;2023-04-15T00:20:41;9.50;;;7.47;;
58015;SDS011;43809;52.110;20.964;2023-04-15T00:22:41;12.35;;;7.97;;
58015;SDS011;43809;52.110;20.964;2023-04-15T00:24:41;13.48;;;7.72;;
58015;SDS011;43809;52.110;20.964;2023-04-15T00:26:42;11.45;;;7.88;;
58015;SDS011;43809;52.110;20.964;2023-04-15T00:28:42;10.80;;;7.47;;
58015;SDS011;43809;52.110;20.964;2023-04-15T00:30:42;11.32;;;7.80;;
58015;SDS011;43809;52.110;20.964;2023-04-15T00:32:42;11.45;;;7.75;;
58015;SDS011;43809;52.110;20.964;2023-04-15T00:34:43;11.20;;;7.70;;
58015;SDS011;43809;52.110;20.964;2023-04-15T00:36:44;11.55;;;8.05;;
58015;SDS011;43809;52.110;20.964;2023-04-15T00:38:44;11.05;;;7.57;;
58015;SDS011;43809;52.110;20.964;2023-04-15T00:40:44;9.60;;;7.65;;
58015;SDS011;43809;52.110;20.964;2023-04-15T00:42:45;12.40;;;8.30;;
58015;SDS011;43809;52.110;20.964;2023-04-15T00:44:46;9.40;;;7.03;;
58015;SDS011;43809;52.110;20.964;2023-04-15T00:46:46;10.00;;;7.60;;
58015;SDS011;43809;52.110;20.964;2023-04-15T00:48:47;11.23;;;8.50;;
58015;SDS011;43809;52.110;20.964;2023-04-15T00:50:48;11.30;;;7.05;;
58015;SDS011;43809;52.110;20.964;2023-04-15T00:52:48;10.07;;;7.05;;
58015;SDS011;43809;52.110;20.964;2023-04-15T00:54:48;11.05;;;7.80;;
58015;SDS011;43809;52.110;20.964;2023-04-15T00:56:50;10.70;;;7.57;;
58015;SDS011;43809;52.110;20.964;2023-04-15T00:58:50;11.60;;;8.10;;
58015;SDS011;43809;52.110;20.964;2023-04-15T01:00:50;10.70;;;7.47;;
58015;SDS011;43809;52.110;20.964;2023-04-15T01:02:53;10.75;;;7.80;;
58015;SDS011;43809;52.110;20.964;2023-04-15T01:04:53;11.80;;;8.27;;
58015;SDS011;43809;52.110;20.964;2023-04-15T01:06:53;10.38;;;7.78;;
58015;SDS011;43809;52.110;20.964;2023-04-15T01:08:54;9.90;;;7.50;;
58015;SDS011;43809;52.110;20.964;2023-04-15T01:10:55;11.98;;;8.32;;
58015;SDS011;43809;52.110;20.964;2023-04-15T01:12:55;12.52;;;8.55;;
58015;SDS011;43809;52.110;20.964;2023-04-15T01:14:56;9.82;;;7.18;;
58015;SDS011;43809;52.110;20.964;2023-04-15T01:16:56;11.68;;;8.27;;
58015;SDS011;43809;52.110;20.964;2023-04-15T01:18:56;12.00;;;8.30;;
58015;SDS011;43809;52.110;20.964;2023-04-15T01:20:56;11.90;;;7.95;;
58015;SDS011;43809;52.110;20.964;2023-04-15T01:22:57;13.40;;;8.65;;
58015;SDS011;43809;52.110;20.964;2023-04-15T01:25:02;10.70;;;7.70;;
58015;SDS011;43809;52.110;20.964;2023-04-15T01:27:06;12.73;;;8.23;;
58015;SDS011;43809;52.110;20.964;2023-04-15T01:29:18;12.80;;;8.77;;
58015;SDS011;43809;52.110;20.964;2023-04-15T01:31:18;12.30;;;8.23;;
58015;SDS011;43809;52.110;20.964;2023-04-15T01:33:18;12.10;;;8.45;;
58015;SDS011;43809;52.110;20.964;2023-04-15T01:35:18;10.70;;;8.10;;
58015;SDS011;43809;52.110;20.964;2023-04-15T01:37:20;12.43;;;8.75;;
58015;SDS011;43809;52.110;20.964;2023-04-15T01:39:20;15.10;;;9.20;;
58015;SDS011;43809;52.110;20.964;2023-04-15T01:41:23;14.17;;;9.70;;
58015;SDS011;43809;52.110;20.964;2023-04-15T01:43:24;11.82;;;8.55;;
58015;SDS011;43809;52.110;20.964;2023-04-15T01:45:24;13.40;;;8.57;;
58015;SDS011;43809;52.110;20.964;2023-04-15T01:47:25;11.90;;;8.52;;
58015;SDS011;43809;52.110;20.964;2023-04-15T01:49:26;13.05;;;8.70;;
58015;SDS011;43809;52.110;20.964;2023-04-15T01:51:26;11.77;;;8.25;;
58015;SDS011;43809;52.110;20.964;2023-04-15T01:53:27;11.32;;;8.05;;
58015;SDS011;43809;52.110;20.964;2023-04-15T01:55:27;12.13;;;7.88;;
58015;SDS011;43809;52.110;20.964;2023-04-15T01:57:27;11.48;;;8.40;;
58015;SDS011;43809;52.110;20.964;2023-04-15T01:59:30;11.80;;;8.05;;
58015;SDS011;43809;52.110;20.964;2023-04-15T02:01:30;10.02;;;7.85;;
58015;SDS011;43809;52.110;20.964;2023-04-15T02:03:31;12.63;;;8.30;;
58015;SDS011;43809;52.110;20.964;2023-04-15T02:05:32;12.57;;;9.13;;
58015;SDS011;43809;52.110;20.964;2023-04-15T02:07:33;11.68;;;8.05;;
58015;SDS011;43809;52.110;20.964;2023-04-15T02:09:33;14.20;;;9.40;;
58015;SDS011;43809;52.110;20.964;2023-04-15T02:11:33;12.32;;;8.70;;
58015;SDS011;43809;52.110;20.964;2023-04-15T02:13:35;13.75;;;9.43;;
58015;SDS011;43809;52.110;20.964;2023-04-15T02:15:35;14.07;;;9.35;;
58015;SDS011;43809;52.110;20.964;2023-04-15T02:17:35;13.80;;;9.63;;
58015;SDS011;43809;52.110;20.964;2023-04-15T02:19:36;16.50;;;9.88;;
58015;SDS011;43809;52.110;20.964;2023-04-15T02:21:36;12.73;;;8.73;;
58015;SDS011;43809;52.110;20.964;2023-04-15T02:23:38;11.75;;;8.27;;
58015;SDS011;43809;52.110;20.964;2023-04-15T02:25:38;13.45;;;8.95;;
58015;SDS011;43809;52.110;20.964;2023-04-15T02:27:38;13.27;;;9.30;;
58015;SDS011;43809;52.110;20.964;2023-04-15T02:29:38;13.73;;;9.43;;
58015;SDS011;43809;52.110;20.964;2023-04-15T02:31:39;13.80;;;9.40;;
58015;SDS011;43809;52.110;20.964;2023-04-15T02:33:41;12.40;;;9.02;;
58015;SDS011;43809;52.110;20.964;2023-04-15T02:35:41;14.97;;;10.07;;
58015;SDS011;43809;52.110;20.964;2023-04-15T02:37:43;12.75;;;9.40;;
58015;SDS011;43809;52.110;20.964;2023-04-15T02:39:44;13.57;;;9.55;;
58015;SDS011;43809;52.110;20.964;2023-04-15T02:41:45;13.00;;;9.38;;
58015;SDS011;43809;52.110;20.964;2023-04-15T02:43:50;15.18;;;9.82;;
58015;SDS011;43809;52.110;20.964;2023-04-15T02:45:50;15.43;;;11.07;;
58015;SDS011;43809;52.110;20.964;2023-04-15T02:47:51;13.85;;;9.15;;
58015;SDS011;43809;52.110;20.964;2023-04-15T02:49:51;13.57;;;9.65;;
58015;SDS011;43809;52.110;20.964;2023-04-15T02:51:55;15.40;;;10.40;;
58015;SDS011;43809;52.110;20.964;2023-04-15T02:53:57;13.10;;;9.38;;
58015;SDS011;43809;52.110;20.964;2023-04-15T02:55:57;11.20;;;8.00;;
58015;SDS011;43809;52.110;20.964;2023-04-15T02:57:58;14.23;;;8.80;;
58015;SDS011;43809;52.110;20.964;2023-04-15T03:00:00;13.35;;;9.10;;
58015;SDS011;43809;52.110;20.964;2023-04-15T03:02:00;13.40;;;9.40;;
58015;SDS011;43809;52.110;20.964;2023-04-15T03:04:00;14.75;;;10.38;;
58015;SDS011;43809;52.110;20.964;2023-04-15T03:06:00;13.15;;;9.98;;
58015;SDS011;43809;52.110;20.964;2023-04-15T03:08:01;13.65;;;9.48;;
58015;SDS011;43809;52.110;20.964;2023-04-15T03:10:02;15.73;;;9.25;;
58015;SDS011;43809;52.110;20.964;2023-04-15T03:12:02;14.90;;;10.10;;
58015;SDS011;43809;52.110;20.964;2023-04-15T03:14:02;14.52;;;10.35;;
58015;SDS011;43809;52.110;20.964;2023-04-15T03:16:03;12.20;;;8.27;;
58015;SDS011;43809;52.110;20.964;2023-04-15T03:18:03;15.48;;;10.68;;
58015;SDS011;43809;52.110;20.964;2023-04-15T03:20:04;13.65;;;10.07;;
58015;SDS011;43809;52.110;20.964;2023-04-15T03:22:05;15.95;;;11.35;;
58015;SDS011;43809;52.110;20.964;2023-04-15T03:24:05;15.88;;;10.10;;
58015;SDS011;43809;52.110;20.964;2023-04-15T03:26:05;15.90;;;10.55;;
58015;SDS011;43809;52.110;20.964;2023-04-15T03:28:06;13.80;;;9.57;;
58015;SDS011;43809;52.110;20.964;2023-04-15T03:30:06;12.60;;;9.30;;
58015;SDS011;43809;52.110;20.964;2023-04-15T03:32:07;14.27;;;9.93;;
58015;SDS011;43809;52.110;20.964;2023-04-15T03:34:08;15.70;;;10.00;;
58015;SDS011;43809;52.110;20.964;2023-04-15T03:36:08;11.32;;;8.13;;
58015;SDS011;43809;52.110;20.964;2023-04-15T03:38:08;14.13;;;9.43;;
58015;SDS011;43809;52.110;20.964;2023-04-15T03:40:08;13.48;;;9.52;;
58015;SDS011;43809;52.110;20.964;2023-04-15T03:42:09;12.98;;;9.38;;
58015;SDS011;43809;52.110;20.964;2023-04-15T03:44:09;14.45;;;10.02;;
58015;SDS011;43809;52.110;20.964;2023-04-15T03:46:09;14.80;;;10.23;;
58015;SDS011;43809;52.110;20.964;2023-04-15T03:48:09;14.80;;;10.60;;
58015;SDS011;43809;52.110;20.964;2023-04-15T03:50:09;13.10;;;8.77;;
58015;SDS011;43809;52.110;20.964;2023-04-15T03:52:10;12.13;;;8.35;;
58015;SDS011;43809;52.110;20.964;2023-04-15T03:54:10;13.15;;;9.38;;
58015;SDS011;43809;52.110;20.964;2023-04-15T03:56:11;12.70;;;8.98;;
58015;SDS011;43809;52.110;20.964;2023-04-15T03:58:12;12.52;;;9.45;;
58015;SDS011;43809;52.110;20.964;2023-04-15T04:00:12;14.30;;;8.82;;
58015;SDS011;43809;52.110;20.964;2023-04-15T04:02:12;12.05;;;8.95;;
58015;SDS011;43809;52.110;20.964;2023-04-15T04:04:21;12.87;;;9.10;;
58015;SDS011;43809;52.110;20.964;2023-04-15T04:06:21;11.93;;;8.73;;
58015;SDS011;43809;52.110;20.964;2023-04-15T04:08:21;13.07;;;9.43;;
58015;SDS011;43809;52.110;20.964;2023-04-15T04:10:21;14.50;;;10.00;;
58015;SDS011;43809;52.110;20.964;2023-04-15T04:12:22;13.15;;;9.85;;
58015;SDS011;43809;52.110;20.964;2023-04-15T04:14:22;11.20;;;8.75;;
58015;SDS011;43809;52.110;20.964;2023-04-15T04:16:28;13.77;;;9.18;;
58015;SDS011;43809;52.110;20.964;2023-04-15T04:18:28;12.05;;;8.70;;
58015;SDS011;43809;52.110;20.964;2023-04-15T04:20:28;11.75;;;8.93;;
58015;SDS011;43809;52.110;20.964;2023-04-15T04:22:36;13.05;;;8.43;;
58015;SDS011;43809;52.110;20.964;2023-04-15T04:24:36;12.93;;;8.52;;
58015;SDS011;43809;52.110;20.964;2023-04-15T04:26:36;15.63;;;8.75;;
58015;SDS011;43809;52.110;20.964;2023-04-15T04:28:36;11.15;;;8.93;;
58015;SDS011;43809;52.110;20.964;2023-04-15T04:32:39;11.88;;;8.13;;
58015;SDS011;43809;52.110;20.964;2023-04-15T04:34:39;12.65;;;8.73;;
58015;SDS011;43809;52.110;20.964;2023-04-15T04:36:40;10.55;;;7.47;;
58015;SDS011;43809;52.110;20.964;2023-04-15T04:38:40;10.57;;;7.75;;
58015;SDS011;43809;52.110;20.964;2023-04-15T04:40:40;10.95;;;7.78;;
58015;SDS011;43809;52.110;20.964;2023-04-15T04:42:41;11.60;;;8.35;;
58015;SDS011;43809;52.110;20.964;2023-04-15T04:44:41;10.95;;;8.93;;
58015;SDS011;43809;52.110;20.964;2023-04-15T04:46:41;13.02;;;9.15;;
58015;SDS011;43809;52.110;20.964;2023-04-15T04:48:41;13.10;;;8.85;;
58015;SDS011;43809;52.110;20.964;2023-04-15T04:50:42;13.40;;;9.18;;
58015;SDS011;43809;52.110;20.964;2023-04-15T04:52:42;13.43;;;9.32;;
58015;SDS011;43809;52.110;20.964;2023-04-15T04:54:42;12.82;;;9.15;;
58015;SDS011;43809;52.110;20.964;2023-04-15T04:56:42;11.43;;;8.57;;
58015;SDS011;43809;52.110;20.964;2023-04-15T04:58:42;12.47;;;8.93;;
58015;SDS011;43809;52.110;20.964;2023-04-15T05:00:43;13.57;;;9.57;;
58015;SDS011;43809;52.110;20.964;2023-04-15T05:02:43;12.40;;;8.48;;
58015;SDS011;43809;52.110;20.964;2023-04-15T05:04:43;10.70;;;8.70;;
58015;SDS011;43809;52.110;20.964;2023-04-15T05:06:44;11.88;;;8.45;;
58015;SDS011;43809;52.110;20.964;2023-04-15T05:08:44;13.75;;;8.93;;
58015;SDS011;43809;52.110;20.964;2023-04-15T05:10:46;13.05;;;8.80;;
58015;SDS011;43809;52.110;20.964;2023-04-15T05:12:46;12.00;;;9.10;;
58015;SDS011;43809;52.110;20.964;2023-04-15T05:14:46;11.63;;;8.95;;
58015;SDS011;43809;52.110;20.964;2023-04-15T05:16:46;15.10;;;9.55;;
58015;SDS011;43809;52.110;20.964;2023-04-15T05:18:46;11.73;;;8.65;;
58015;SDS011;43809;52.110;20.964;2023-04-15T05:20:47;13.40;;;8.67;;
58015;SDS011;43809;52.110;20.964;2023-04-15T05:22:49;11.38;;;8.75;;
58015;SDS011;43809;52.110;20.964;2023-04-15T05:24:49;15.77;;;9.70;;
58015;SDS011;43809;52.110;20.964;2023-04-15T05:26:52;14.50;;;10.13;;
58015;SDS011;43809;52.110;20.964;2023-04-15T05:28:56;11.68;;;8.13;;
58015;SDS011;43809;52.110;20.964;2023-04-15T05:30:56;11.77;;;8.68;;
58015;SDS011;43809;52.110;20.964;2023-04-15T05:32:56;13.70;;;9.13;;
58015;SDS011;43809;52.110;20.964;2023-04-15T05:34:56;12.20;;;8.40;;
58015;SDS011;43809;52.110;20.964;2023-04-15T05:36:57;15.02;;;9.07;;
58015;SDS011;43809;52.110;20.964;2023-04-15T05:39:04;13.25;;;9.55;;
58015;SDS011;43809;52.110;20.964;2023-04-15T05:41:04;14.70;;;9.18;;
58015;SDS011;43809;52.110;20.964;2023-04-15T05:43:04;13.30;;;9.07;;
58015;SDS011;43809;52.110;20.964;2023-04-15T05:45:05;13.05;;;9.20;;
58015;SDS011;43809;52.110;20.964;2023-04-15T05:47:09;12.35;;;8.80;;
58015;SDS011;43809;52.110;20.964;2023-04-15T05:49:09;14.15;;;8.90;;
58015;SDS011;43809;52.110;20.964;2023-04-15T05:51:10;11.60;;;8.35;;
58015;SDS011;43809;52.110;20.964;2023-04-15T05:53:10;10.95;;;8.20;;
58015;SDS011;43809;52.110;20.964;2023-04-15T05:55:11;12.20;;;8.65;;
58015;SDS011;43809;52.110;20.964;2023-04-15T05:57:11;11.07;;;8.45;;
58015;SDS011;43809;52.110;20.964;2023-04-15T05:59:11;12.15;;;8.57;;
58015;SDS011;43809;52.110;20.964;2023-04-15T06:01:12;14.35;;;7.95;;
58015;SDS011;43809;52.110;20.964;2023-04-15T06:03:12;12.20;;;7.82;;
58015;SDS011;43809;52.110;20.964;2023-04-15T06:05:12;9.60;;;6.82;;
58015;SDS011;43809;52.110;20.964;2023-04-15T06:07:13;10.07;;;7.82;;
58015;SDS011;43809;52.110;20.964;2023-04-15T06:09:13;10.77;;;7.70;;
58015;SDS011;43809;52.110;20.964;2023-04-15T06:11:13;11.50;;;8.70;;
58015;SDS011;43809;52.110;20.964;2023-04-15T06:13:14;9.93;;;7.53;;
58015;SDS011;43809;52.110;20.964;2023-04-15T06:15:16;10.93;;;8.25;;
58015;SDS011;43809;52.110;20.964;2023-04-15T06:17:16;11.25;;;8.20;;
58015;SDS011;43809;52.110;20.964;2023-04-15T06:19:17;9.40;;;7.07;;
58015;SDS011;43809;52.110;20.964;2023-04-15T06:21:18;10.00;;;7.30;;
58015;SDS011;43809;52.110;20.964;2023-04-15T06:23:18;9.73;;;7.47;;
58015;SDS011;43809;52.110;20.964;2023-04-15T06:25:19;10.57;;;7.28;;
58015;SDS011;43809;52.110;20.964;2023-04-15T06:27:19;11.93;;;8.02;;
58015;SDS011;43809;52.110;20.964;2023-04-15T06:29:19;10.85;;;7.63;;
58015;SDS011;43809;52.110;20.964;2023-04-15T06:31:20;10.65;;;7.82;;
58015;SDS011;43809;52.110;20.964;2023-04-15T06:33:20;8.73;;;6.88;;
58015;SDS011;43809;52.110;20.964;2023-04-15T06:37:30;8.75;;;6.90;;
58015;SDS011;43809;52.110;20.964;2023-04-15T06:39:31;10.68;;;7.40;;
58015;SDS011;43809;52.110;20.964;2023-04-15T06:41:31;10.43;;;7.15;;
58015;SDS011;43809;52.110;20.964;2023-04-15T06:43:32;10.13;;;7.32;;
58015;SDS011;43809;52.110;20.964;2023-04-15T06:45:32;11.38;;;7.97;;
58015;SDS011;43809;52.110;20.964;2023-04-15T06:47:32;9.82;;;7.38;;
58015;SDS011;43809;52.110;20.964;2023-04-15T06:49:32;9.90;;;7.60;;
58015;SDS011;43809;52.110;20.964;2023-04-15T06:51:33;8.15;;;6.32;;
58015;SDS011;43809;52.110;20.964;2023-04-15T06:53:34;7.55;;;5.85;;
58015;SDS011;43809;52.110;20.964;2023-04-15T06:55:39;8.02;;;6.80;;
58015;SDS011;43809;52.110;20.964;2023-04-15T06:57:40;11.32;;;6.97;;
58015;SDS011;43809;52.110;20.964;2023-04-15T06:59:40;10.55;;;6.93;;
58015;SDS011;43809;52.110;20.964;2023-04-15T07:01:44;8.68;;;7.03;;
58015;SDS011;43809;52.110;20.964;2023-04-15T07:05:45;8.82;;;6.30;;
58015;SDS011;43809;52.110;20.964;2023-04-15T07:07:45;9.35;;;6.53;;
58015;SDS011;43809;52.110;20.964;2023-04-15T07:09:46;8.15;;;6.10;;
58015;SDS011;43809;52.110;20.964;2023-04-15T07:11:46;8.15;;;5.80;;
58015;SDS011;43809;52.110;20.964;2023-04-15T07:13:47;7.38;;;5.43;;
58015;SDS011;43809;52.110;20.964;2023-04-15T07:15:47;6.70;;;5.22;;
58015;SDS011;43809;52.110;20.964;2023-04-15T07:17:48;8.43;;;5.88;;
58015;SDS011;43809;52.110;20.964;2023-04-15T07:19:49;7.72;;;6.05;;
58015;SDS011;43809;52.110;20.964;2023-04-15T07:21:53;6.88;;;5.38;;
58015;SDS011;43809;52.110;20.964;2023-04-15T07:23:53;6.38;;;5.43;;
58015;SDS011;43809;52.110;20.964;2023-04-15T07:25:53;5.60;;;4.90;;
58015;SDS011;43809;52.110;20.964;2023-04-15T07:27:53;7.32;;;5.10;;
58015;SDS011;43809;52.110;20.964;2023-04-15T07:29:54;6.67;;;5.60;;
58015;SDS011;43809;52.110;20.964;2023-04-15T07:31:54;6.60;;;4.80;;
58015;SDS011;43809;52.110;20.964;2023-04-15T07:33:56;5.50;;;4.50;;
58015;SDS011;43809;52.110;20.964;2023-04-15T07:35:56;5.90;;;4.93;;
58015;SDS011;43809;52.110;20.964;2023-04-15T07:37:56;5.07;;;4.13;;
58015;SDS011;43809;52.110;20.964;2023-04-15T07:39:56;6.55;;;4.85;;
58015;SDS011;43809;52.110;20.964;2023-04-15T07:41:57;7.35;;;4.72;;
58015;SDS011;43809;52.110;20.964;2023-04-15T07:43:59;5.18;;;4.28;;
58015;SDS011;43809;52.110;20.964;2023-04-15T07:45:59;6.45;;;4.82;;
58015;SDS011;43809;52.110;20.964;2023-04-15T07:47:59;5.15;;;4.50;;
58015;SDS011;43809;52.110;20.964;2023-04-15T07:50:00;4.60;;;3.85;;
58015;SDS011;43809;52.110;20.964;2023-04-15T07:52:01;6.22;;;4.25;;
58015;SDS011;43809;52.110;20.964;2023-04-15T07:54:01;4.82;;;4.20;;
58015;SDS011;43809;52.110;20.964;2023-04-15T07:56:02;4.50;;;3.67;;
58015;SDS011;43809;52.110;20.964;2023-04-15T07:58:02;5.82;;;4.55;;
58015;SDS011;43809;52.110;20.964;2023-04-15T08:00:03;4.97;;;3.73;;
58015;SDS011;43809;52.110;20.964;2023-04-15T08:02:10;4.70;;;3.95;;
58015;SDS011;43809;52.110;20.964;2023-04-15T08:04:10;5.72;;;4.63;;
58015;SDS011;43809;52.110;20.964;2023-04-15T08:06:10;5.60;;;4.65;;
58015;SDS011;43809;52.110;20.964;2023-04-15T08:08:11;5.18;;;4.35;;
58015;SDS011;43809;52.110;20.964;2023-04-15T08:10:11;5.38;;;4.47;;
58015;SDS011;43809;52.110;20.964;2023-04-15T08:12:12;5.80;;;4.28;;
58015;SDS011;43809;52.110;20.964;2023-04-15T08:14:12;6.15;;;4.47;;
58015;SDS011;43809;52.110;20.964;2023-04-15T08:16:15;5.10;;;3.95;;
58015;SDS011;43809;52.110;20.964;2023-04-15T08:18:15;4.03;;;3.25;;
58015;SDS011;43809;52.110;20.964;2023-04-15T08:20:15;4.90;;;3.92;;
58015;SDS011;43809;52.110;20.964;2023-04-15T08:22:16;4.35;;;3.40;;
58015;SDS011;43809;52.110;20.964;2023-04-15T08:24:16;5.60;;;4.32;;
58015;SDS011;43809;52.110;20.964;2023-04-15T08:26:17;4.47;;;3.63;;
58015;SDS011;43809;52.110;20.964;2023-04-15T08:28:19;5.78;;;4.40;;
58015;SDS011;43809;52.110;20.964;2023-04-15T08:30:20;5.95;;;4.38;;
58015;SDS011;43809;52.110;20.964;2023-04-15T08:32:20;5.43;;;4.03;;
58015;SDS011;43809;52.110;20.964;2023-04-15T08:34:22;4.07;;;3.42;;
58015;SDS011;43809;52.110;20.964;2023-04-15T08:36:22;4.85;;;4.35;;
58015;SDS011;43809;52.110;20.964;2023-04-15T08:38:22;5.70;;;3.97;;
58015;SDS011;43809;52.110;20.964;2023-04-15T08:40:23;5.00;;;3.78;;
58015;SDS011;43809;52.110;20.964;2023-04-15T08:42:27;5.05;;;4.10;;
58015;SDS011;43809;52.110;20.964;2023-04-15T08:44:29;5.57;;;3.63;;
58015;SDS011;43809;52.110;20.964;2023-04-15T08:46:32;3.90;;;3.33;;
58015;SDS011;43809;52.110;20.964;2023-04-15T08:48:35;4.18;;;3.50;;
58015;SDS011;43809;52.110;20.964;2023-04-15T08:50:37;3.95;;;3.40;;
58015;SDS011;43809;52.110;20.964;2023-04-15T08:52:37;4.50;;;3.45;;
58015;SDS011;43809;52.110;20.964;2023-04-15T08:54:37;4.45;;;3.42;;
58015;SDS011;43809;52.110;20.964;2023-04-15T08:56:38;4.10;;;3.50;;
58015;SDS011;43809;52.110;20.964;2023-04-15T08:58:39;5.53;;;3.90;;
58015;SDS011;43809;52.110;20.964;2023-04-15T09:00:40;4.50;;;3.58;;
58015;SDS011;43809;52.110;20.964;2023-04-15T09:02:41;4.65;;;3.67;;
58015;SDS011;43809;52.110;20.964;2023-04-15T09:04:41;4.60;;;3.47;;
58015;SDS011;43809;52.110;20.964;2023-04-15T09:06:42;4.28;;;3.50;;
58015;SDS011;43809;52.110;20.964;2023-04-15T09:08:42;3.83;;;3.42;;
58015;SDS011;43809;52.110;20.964;2023-04-15T09:10:42;4.18;;;3.42;;
58015;SDS011;43809;52.110;20.964;2023-04-15T09:12:43;5.30;;;3.80;;
58015;SDS011;43809;52.110;20.964;2023-04-15T09:14:44;4.50;;;3.53;;
58015;SDS011;43809;52.110;20.964;2023-04-15T09:18:57;4.10;;;3.58;;
58015;SDS011;43809;52.110;20.964;2023-04-15T09:23:14;4.20;;;3.35;;
58015;SDS011;43809;52.110;20.964;2023-04-15T09:27:23;3.50;;;2.80;;
58015;SDS011;43809;52.110;20.964;2023-04-15T09:29:26;4.40;;;3.00;;
58015;SDS011;43809;52.110;20.964;2023-04-15T09:31:28;3.90;;;3.30;;
58015;SDS011;43809;52.110;20.964;2023-04-15T09:33:28;3.15;;;2.83;;
58015;SDS011;43809;52.110;20.964;2023-04-15T09:35:29;3.78;;;2.80;;
58015;SDS011;43809;52.110;20.964;2023-04-15T09:37:35;3.60;;;2.67;;
58015;SDS011;43809;52.110;20.964;2023-04-15T09:39:48;3.63;;;2.85;;
58015;SDS011;43809;52.110;20.964;2023-04-15T09:42:25;3.03;;;2.75;;
58015;SDS011;43809;52.110;20.964;2023-04-15T09:44:25;3.63;;;2.60;;
58015;SDS011;43809;52.110;20.964;2023-04-15T09:46:42;3.10;;;2.42;;
58015;SDS011;43809;52.110;20.964;2023-04-15T09:48:42;3.10;;;2.72;;
58015;SDS011;43809;52.110;20.964;2023-04-15T09:50:43;2.80;;;2.13;;
58015;SDS011;43809;52.110;20.964;2023-04-15T09:52:43;4.57;;;2.85;;
58015;SDS011;43809;52.110;20.964;2023-04-15T09:54:43;3.05;;;2.67;;
58015;SDS011;43809;52.110;20.964;2023-04-15T09:56:44;3.03;;;2.67;;
58015;SDS011;43809;52.110;20.964;2023-04-15T09:58:44;3.13;;;2.67;;
58015;SDS011;43809;52.110;20.964;2023-04-15T10:00:49;3.00;;;2.65;;
58015;SDS011;43809;52.110;20.964;2023-04-15T10:02:52;3.08;;;2.35;;
58015;SDS011;43809;52.110;20.964;2023-04-15T10:04:53;4.00;;;2.77;;
58015;SDS011;43809;52.110;20.964;2023-04-15T10:06:53;3.97;;;2.50;;
58015;SDS011;43809;52.110;20.964;2023-04-15T10:08:54;3.00;;;2.58;;
58015;SDS011;43809;52.110;20.964;2023-04-15T10:10:55;2.90;;;2.47;;
58015;SDS011;43809;52.110;20.964;2023-04-15T10:12:55;2.53;;;2.30;;
58015;SDS011;43809;52.110;20.964;2023-04-15T10:14:57;3.58;;;2.72;;
58015;SDS011;43809;52.110;20.964;2023-04-15T10:16:59;3.42;;;3.03;;
58015;SDS011;43809;52.110;20.964;2023-04-15T10:19:01;3.50;;;2.72;;
58015;SDS011;43809;52.110;20.964;2023-04-15T10:21:01;4.05;;;2.65;;
58015;SDS011;43809;52.110;20.964;2023-04-15T10:23:02;3.00;;;2.25;;
58015;SDS011;43809;52.110;20.964;2023-04-15T10:25:02;2.95;;;2.42;;
58015;SDS011;43809;52.110;20.964;2023-04-15T10:27:03;2.47;;;2.10;;
58015;SDS011;43809;52.110;20.964;2023-04-15T10:29:04;2.67;;;2.47;;
58015;SDS011;43809;52.110;20.964;2023-04-15T10:31:05;3.33;;;2.50;;
58015;SDS011;43809;52.110;20.964;2023-04-15T10:33:06;4.40;;;2.60;;
58015;SDS011;43809;52.110;20.964;2023-04-15T10:35:08;2.67;;;2.42;;
58015;SDS011;43809;52.110;20.964;2023-04-15T10:37:08;3.00;;;2.70;;
58015;SDS011;43809;52.110;20.964;2023-04-15T10:39:55;3.03;;;2.67;;
58015;SDS011;43809;52.110;20.964;2023-04-15T10:41:32;4.38;;;3.10;;
58015;SDS011;43809;52.110;20.964;2023-04-15T10:43:33;3.08;;;2.72;;
58015;SDS011;43809;52.110;20.964;2023-04-15T10:45:36;3.58;;;2.95;;
58015;SDS011;43809;52.110;20.964;2023-04-15T10:47:36;3.08;;;2.80;;
58015;SDS011;43809;52.110;20.964;2023-04-15T10:49:48;3.45;;;2.90;;
58015;SDS011;43809;52.110;20.964;2023-04-15T10:51:53;4.25;;;3.20;;
58015;SDS011;43809;52.110;20.964;2023-04-15T10:53:56;3.75;;;3.30;;
58015;SDS011;43809;52.110;20.964;2023-04-15T10:55:58;5.27;;;3.80;;
58015;SDS011;43809;52.110;20.964;2023-04-15T10:57:59;5.47;;;4.10;;
58015;SDS011;43809;52.110;20.964;2023-04-15T11:02:05;3.35;;;2.90;;
58015;SDS011;43809;52.110;20.964;2023-04-15T11:04:06;4.10;;;3.22;;
58015;SDS011;43809;52.110;20.964;2023-04-15T11:06:06;4.65;;;3.60;;
58015;SDS011;43809;52.110;20.964;2023-04-15T11:08:07;4.63;;;3.38;;
58015;SDS011;43809;52.110;20.964;2023-04-15T11:12:18;3.30;;;3.00;;
58015;SDS011;43809;52.110;20.964;2023-04-15T11:14:18;3.88;;;3.00;;
58015;SDS011;43809;52.110;20.964;2023-04-15T11:16:18;4.30;;;3.37;;
58015;SDS011;43809;52.110;20.964;2023-04-15T11:18:19;4.43;;;3.33;;
58015;SDS011;43809;52.110;20.964;2023-04-15T11:20:21;4.50;;;3.50;;
58015;SDS011;43809;52.110;20.964;2023-04-15T11:22:21;4.15;;;3.28;;
58015;SDS011;43809;52.110;20.964;2023-04-15T11:24:24;4.03;;;3.00;;
58015;SDS011;43809;52.110;20.964;2023-04-15T11:26:27;3.58;;;3.00;;
58015;SDS011;43809;52.110;20.964;2023-04-15T11:28:29;3.60;;;3.03;;
58015;SDS011;43809;52.110;20.964;2023-04-15T11:30:31;2.92;;;2.55;;
58015;SDS011;43809;52.110;20.964;2023-04-15T11:32:31;3.93;;;2.70;;
58015;SDS011;43809;52.110;20.964;2023-04-15T11:34:31;3.72;;;2.85;;
58015;SDS011;43809;52.110;20.964;2023-04-15T11:36:32;4.55;;;3.25;;
58015;SDS011;43809;52.110;20.964;2023-04-15T11:38:33;4.72;;;3.40;;
58015;SDS011;43809;52.110;20.964;2023-04-15T11:40:33;3.83;;;3.42;;
58015;SDS011;43809;52.110;20.964;2023-04-15T11:42:34;3.38;;;2.95;;
58015;SDS011;43809;52.110;20.964;2023-04-15T11:44:34;3.67;;;3.15;;
58015;SDS011;43809;52.110;20.964;2023-04-15T11:46:34;3.40;;;3.10;;
58015;SDS011;43809;52.110;20.964;2023-04-15T11:48:35;3.35;;;3.05;;
58015;SDS011;43809;52.110;20.964;2023-04-15T11:50:35;3.38;;;2.70;;
58015;SDS011;43809;52.110;20.964;2023-04-15T11:52:36;3.47;;;3.15;;
58015;SDS011;43809;52.110;20.964;2023-04-15T11:54:37;3.67;;;3.17;;
58015;SDS011;43809;52.110;20.964;2023-04-15T11:56:37;4.63;;;3.60;;
58015;SDS011;43809;52.110;20.964;2023-04-15T11:58:37;4.20;;;3.50;;
58015;SDS011;43809;52.110;20.964;2023-04-15T12:00:38;4.20;;;3.30;;
58015;SDS011;43809;52.110;20.964;2023-04-15T12:02:39;4.10;;;3.40;;
58015;SDS011;43809;52.110;20.964;2023-04-15T12:04:39;4.22;;;3.67;;
58015;SDS011;43809;52.110;20.964;2023-04-15T12:06:40;5.40;;;3.70;;
58015;SDS011;43809;52.110;20.964;2023-04-15T12:10:47;5.10;;;3.95;;